sensor_id;sensor_type;location;lat;lon;timestamp;P1;durP1;ratioP1;P2;durP2;ratioP2
19036;SDS011;9651;49.138;8.900;2023-02-22T00:01:00;17.70;;;6.80;;
19036;SDS011;9651;49.138;8.900;2023-02-22T00:05:07;11.50;;;6.10;;
19036;SDS011;9651;49.138;8.900;2023-02-22T00:09:10;12.80;;;7.53;;
19036;SDS011;9651;49.138;8.900;2023-02-22T00:13:14;14.73;;;7.23;;
19036;SDS011;9651;49.138;8.900;2023-02-22T00:17:16;13.53;;;7.47;;
19036;SDS011;9651;49.138;8.900;2023-02-22T00:21:19;11.00;;;7.33;;
19036;SDS011;9651;49.138;8.900;2023-02-22T00:25:23;12.63;;;7.13;;
19036;SDS011;9651;49.138;8.900;2023-02-22T00:29:25;15.43;;;7.10;;
19036;SDS011;9651;49.138;8.900;2023-02-22T00:33:27;15.20;;;6.80;;
19036;SDS011;9651;49.138;8.900;2023-02-22T00:37:29;12.20;;;6.70;;
19036;SDS011;9651;49.138;8.900;2023-02-22T00:41:33;11.60;;;7.30;;
19036;SDS011;9651;49.138;8.900;2023-02-22T00:45:36;16.57;;;7.80;;
19036;SDS011;9651;49.138;8.900;2023-02-22T00:49:38;12.03;;;8.40;;
19036;SDS011;9651;49.138;8.900;2023-02-22T00:53:40;20.70;;;9.47;;
19036;SDS011;9651;49.138;8.900;2023-02-22T00:57:43;14.93;;;7.97;;
19036;SDS011;9651;49.138;8.900;2023-02-22T01:01:46;15.43;;;8.13;;
19036;SDS011;9651;49.138;8.900;2023-02-22T01:05:48;12.80;;;8.03;;
19036;SDS011;9651;49.138;8.900;2023-02-22T01:09:49;13.53;;;7.67;;
19036;SDS011;9651;49.138;8.900;2023-02-22T01:13:54;14.17;;;8.00;;
19036;SDS011;9651;49.138;8.900;2023-02-22T01:17:57;11.50;;;7.40;;
19036;SDS011;9651;49.138;8.900;2023-02-22T01:22:00;15.93;;;7.60;;
19036;SDS011;9651;49.138;8.900;2023-02-22T01:26:02;16.43;;;8.67;;
19036;SDS011;9651;49.138;8.900;2023-02-22T01:30:07;15.30;;;7.77;;
19036;SDS011;9651;49.138;8.900;2023-02-22T01:34:11;13.47;;;8.20;;
19036;SDS011;9651;49.138;8.900;2023-02-22T01:38:15;17.40;;;8.17;;
19036;SDS011;9651;49.138;8.900;2023-02-22T01:42:17;16.60;;;8.63;;
19036;SDS011;9651;49.138;8.900;2023-02-22T01:46:21;12.27;;;7.83;;
19036;SDS011;9651;49.138;8.900;2023-02-22T01:50:24;15.20;;;7.93;;
19036;SDS011;9651;49.138;8.900;2023-02-22T01:54:28;11.07;;;7.10;;
19036;SDS011;9651;49.138;8.900;2023-02-22T01:58:33;17.00;;;8.00;;
19036;SDS011;9651;49.138;8.900;2023-02-22T02:02:37;12.30;;;7.53;;
19036;SDS011;9651;49.138;8.900;2023-02-22T02:06:42;15.33;;;7.97;;
19036;SDS011;9651;49.138;8.900;2023-02-22T02:10:45;10.73;;;7.37;;
19036;SDS011;9651;49.138;8.900;2023-02-22T02:14:49;13.63;;;7.90;;
19036;SDS011;9651;49.138;8.900;2023-02-22T02:18:55;16.13;;;8.43;;
19036;SDS011;9651;49.138;8.900;2023-02-22T02:22:58;15.47;;;7.67;;
19036;SDS011;9651;49.138;8.900;2023-02-22T02:27:13;15.00;;;8.93;;
19036;SDS011;9651;49.138;8.900;2023-02-22T02:36:03;13.30;;;8.53;;
19036;SDS011;9651;49.138;8.900;2023-02-22T02:40:15;12.40;;;7.57;;
19036;SDS011;9651;49.138;8.900;2023-02-22T02:44:23;12.67;;;8.03;;
19036;SDS011;9651;49.138;8.900;2023-02-22T02:48:29;15.10;;;7.13;;
19036;SDS011;9651;49.138;8.900;2023-02-22T02:52:36;17.13;;;7.80;;
19036;SDS011;9651;49.138;8.900;2023-02-22T02:56:41;14.33;;;8.30;;
19036;SDS011;9651;49.138;8.900;2023-02-22T03:00:43;14.93;;;7.97;;
19036;SDS011;9651;49.138;8.900;2023-02-22T03:04:53;11.93;;;7.23;;
19036;SDS011;9651;49.138;8.900;2023-02-22T03:09:10;11.60;;;6.97;;
19036;SDS011;9651;49.138;8.900;2023-02-22T03:13:22;14.30;;;8.30;;
19036;SDS011;9651;49.138;8.900;2023-02-22T03:17:33;14.27;;;7.67;;
19036;SDS011;9651;49.138;8.900;2023-02-22T03:21:43;13.53;;;7.73;;
19036;SDS011;9651;49.138;8.900;2023-02-22T03:25:51;18.67;;;8.80;;
19036;SDS011;9651;49.138;8.900;2023-02-22T03:29:59;12.17;;;8.40;;
19036;SDS011;9651;49.138;8.900;2023-02-22T03:34:06;13.47;;;7.70;;
19036;SDS011;9651;49.138;8.900;2023-02-22T03:38:13;14.00;;;7.57;;
19036;SDS011;9651;49.138;8.900;2023-02-22T03:42:21;12.23;;;7.67;;
19036;SDS011;9651;49.138;8.900;2023-02-22T03:46:27;12.60;;;7.63;;
19036;SDS011;9651;49.138;8.900;2023-02-22T03:50:32;13.73;;;7.50;;
19036;SDS011;9651;49.138;8.900;2023-02-22T03:54:39;14.70;;;7.90;;
19036;SDS011;9651;49.138;8.900;2023-02-22T03:58:41;16.47;;;8.03;;
19036;SDS011;9651;49.138;8.900;2023-02-22T04:02:44;11.63;;;7.70;;
19036;SDS011;9651;49.138;8.900;2023-02-22T04:06:52;15.87;;;8.13;;
19036;SDS011;9651;49.138;8.900;2023-02-22T04:10:56;13.07;;;8.47;;
19036;SDS011;9651;49.138;8.900;2023-02-22T04:15:01;12.77;;;7.53;;
19036;SDS011;9651;49.138;8.900;2023-02-22T04:19:05;15.33;;;7.13;;
19036;SDS011;9651;49.138;8.900;2023-02-22T04:23:08;14.37;;;7.50;;
19036;SDS011;9651;49.138;8.900;2023-02-22T04:27:14;13.73;;;7.33;;
19036;SDS011;9651;49.138;8.900;2023-02-22T04:31:16;14.07;;;7.30;;
19036;SDS011;9651;49.138;8.900;2023-02-22T04:35:18;11.13;;;7.43;;
19036;SDS011;9651;49.138;8.900;2023-02-22T04:39:20;10.90;;;7.00;;
19036;SDS011;9651;49.138;8.900;2023-02-22T04:43:26;11.40;;;7.33;;
19036;SDS011;9651;49.138;8.900;2023-02-22T04:47:36;10.90;;;6.87;;
19036;SDS011;9651;49.138;8.900;2023-02-22T04:51:39;11.57;;;6.63;;
19036;SDS011;9651;49.138;8.900;2023-02-22T04:55:44;13.93;;;7.50;;
19036;SDS011;9651;49.138;8.900;2023-02-22T04:59:48;15.50;;;8.27;;
19036;SDS011;9651;49.138;8.900;2023-02-22T05:03:50;14.57;;;7.57;;
19036;SDS011;9651;49.138;8.900;2023-02-22T05:07:52;12.57;;;7.40;;
19036;SDS011;9651;49.138;8.900;2023-02-22T05:11:54;14.27;;;7.50;;
19036;SDS011;9651;49.138;8.900;2023-02-22T05:15:57;11.87;;;7.40;;
19036;SDS011;9651;49.138;8.900;2023-02-22T05:19:59;16.20;;;7.97;;
19036;SDS011;9651;49.138;8.900;2023-02-22T05:24:02;13.47;;;7.43;;
19036;SDS011;9651;49.138;8.900;2023-02-22T05:28:06;13.17;;;7.43;;
19036;SDS011;9651;49.138;8.900;2023-02-22T05:32:13;10.80;;;7.10;;
19036;SDS011;9651;49.138;8.900;2023-02-22T05:36:15;13.27;;;6.67;;
19036;SDS011;9651;49.138;8.900;2023-02-22T05:40:17;13.17;;;7.80;;
19036;SDS011;9651;49.138;8.900;2023-02-22T05:44:20;10.37;;;7.10;;
19036;SDS011;9651;49.138;8.900;2023-02-22T05:48:24;13.13;;;7.63;;
19036;SDS011;9651;49.138;8.900;2023-02-22T05:52:26;11.77;;;7.50;;
19036;SDS011;9651;49.138;8.900;2023-02-22T05:56:28;13.57;;;7.40;;
19036;SDS011;9651;49.138;8.900;2023-02-22T06:00:30;13.20;;;7.47;;
19036;SDS011;9651;49.138;8.900;2023-02-22T06:04:34;11.87;;;7.80;;
19036;SDS011;9651;49.138;8.900;2023-02-22T06:08:36;13.40;;;8.10;;
19036;SDS011;9651;49.138;8.900;2023-02-22T06:12:37;14.10;;;7.57;;
19036;SDS011;9651;49.138;8.900;2023-02-22T06:16:40;12.77;;;7.27;;
19036;SDS011;9651;49.138;8.900;2023-02-22T06:20:43;13.70;;;7.97;;
19036;SDS011;9651;49.138;8.900;2023-02-22T06:24:45;13.43;;;8.13;;
19036;SDS011;9651;49.138;8.900;2023-02-22T06:28:46;13.60;;;8.00;;
19036;SDS011;9651;49.138;8.900;2023-02-22T06:32:49;13.03;;;7.67;;
19036;SDS011;9651;49.138;8.900;2023-02-22T06:36:52;17.27;;;8.53;;
19036;SDS011;9651;49.138;8.900;2023-02-22T06:40:54;14.97;;;8.37;;
19036;SDS011;9651;49.138;8.900;2023-02-22T06:44:56;15.63;;;7.70;;
19036;SDS011;9651;49.138;8.900;2023-02-22T06:48:58;12.40;;;7.90;;
19036;SDS011;9651;49.138;8.900;2023-02-22T06:53:01;14.53;;;8.30;;
19036;SDS011;9651;49.138;8.900;2023-02-22T06:57:03;13.97;;;8.07;;
19036;SDS011;9651;49.138;8.900;2023-02-22T07:01:04;10.83;;;7.87;;
19036;SDS011;9651;49.138;8.900;2023-02-22T07:05:08;12.40;;;7.27;;
19036;SDS011;9651;49.138;8.900;2023-02-22T07:09:13;14.13;;;7.73;;
19036;SDS011;9651;49.138;8.900;2023-02-22T07:13:15;16.03;;;7.80;;
19036;SDS011;9651;49.138;8.900;2023-02-22T07:17:17;12.30;;;7.17;;
19036;SDS011;9651;49.138;8.900;2023-02-22T07:21:19;12.60;;;8.37;;
19036;SDS011;9651;49.138;8.900;2023-02-22T07:25:22;15.00;;;7.73;;
19036;SDS011;9651;49.138;8.900;2023-02-22T07:29:24;15.07;;;7.67;;
19036;SDS011;9651;49.138;8.900;2023-02-22T07:33:26;15.77;;;7.73;;
19036;SDS011;9651;49.138;8.900;2023-02-22T07:37:28;12.27;;;7.47;;
19036;SDS011;9651;49.138;8.900;2023-02-22T07:41:31;13.67;;;7.93;;
19036;SDS011;9651;49.138;8.900;2023-02-22T07:45:34;16.53;;;8.60;;
19036;SDS011;9651;49.138;8.900;2023-02-22T07:49:36;15.07;;;10.03;;
19036;SDS011;9651;49.138;8.900;2023-02-22T07:53:38;14.07;;;9.00;;
19036;SDS011;9651;49.138;8.900;2023-02-22T07:57:41;11.60;;;7.67;;
19036;SDS011;9651;49.138;8.900;2023-02-22T08:01:43;15.83;;;8.83;;
19036;SDS011;9651;49.138;8.900;2023-02-22T08:05:46;16.07;;;8.73;;
19036;SDS011;9651;49.138;8.900;2023-02-22T08:09:49;20.00;;;10.23;;
19036;SDS011;9651;49.138;8.900;2023-02-22T08:13:52;20.27;;;12.17;;
19036;SDS011;9651;49.138;8.900;2023-02-22T08:17:54;18.80;;;12.20;;
19036;SDS011;9651;49.138;8.900;2023-02-22T08:21:57;22.17;;;10.60;;
19036;SDS011;9651;49.138;8.900;2023-02-22T08:26:03;17.57;;;11.07;;
19036;SDS011;9651;49.138;8.900;2023-02-22T08:30:07;17.57;;;11.37;;
19036;SDS011;9651;49.138;8.900;2023-02-22T08:34:11;16.77;;;10.17;;
19036;SDS011;9651;49.138;8.900;2023-02-22T08:38:17;18.00;;;11.57;;
19036;SDS011;9651;49.138;8.900;2023-02-22T08:42:21;18.20;;;10.87;;
19036;SDS011;9651;49.138;8.900;2023-02-22T08:46:24;15.33;;;10.67;;
19036;SDS011;9651;49.138;8.900;2023-02-22T08:50:27;22.97;;;12.87;;
19036;SDS011;9651;49.138;8.900;2023-02-22T08:54:32;17.20;;;10.17;;
19036;SDS011;9651;49.138;8.900;2023-02-22T08:58:33;17.60;;;9.47;;
19036;SDS011;9651;49.138;8.900;2023-02-22T09:02:37;20.97;;;10.60;;
19036;SDS011;9651;49.138;8.900;2023-02-22T09:06:39;18.87;;;9.80;;
19036;SDS011;9651;49.138;8.900;2023-02-22T09:10:41;15.23;;;8.80;;
19036;SDS011;9651;49.138;8.900;2023-02-22T09:14:47;15.10;;;8.73;;
19036;SDS011;9651;49.138;8.900;2023-02-22T09:18:50;17.60;;;10.13;;
19036;SDS011;9651;49.138;8.900;2023-02-22T09:22:52;23.77;;;12.07;;
19036;SDS011;9651;49.138;8.900;2023-02-22T09:26:54;15.93;;;11.07;;
19036;SDS011;9651;49.138;8.900;2023-02-22T09:30:58;14.30;;;8.67;;
19036;SDS011;9651;49.138;8.900;2023-02-22T09:35:02;10.77;;;7.67;;
19036;SDS011;9651;49.138;8.900;2023-02-22T09:39:07;12.10;;;7.47;;
19036;SDS011;9651;49.138;8.900;2023-02-22T09:43:17;14.03;;;8.33;;
19036;SDS011;9651;49.138;8.900;2023-02-22T09:47:40;17.50;;;8.07;;
19036;SDS011;9651;49.138;8.900;2023-02-22T09:51:48;10.55;;;6.45;;
19036;SDS011;9651;49.138;8.900;2023-02-22T09:55:56;12.13;;;6.30;;
19036;SDS011;9651;49.138;8.900;2023-02-22T10:00:03;10.25;;;5.90;;
19036;SDS011;9651;49.138;8.900;2023-02-22T10:04:14;11.35;;;5.95;;
19036;SDS011;9651;49.138;8.900;2023-02-22T10:08:22;8.13;;;5.43;;
19036;SDS011;9651;49.138;8.900;2023-02-22T10:12:29;11.38;;;5.50;;
19036;SDS011;9651;49.138;8.900;2023-02-22T10:16:39;8.93;;;5.20;;
19036;SDS011;9651;49.138;8.900;2023-02-22T10:20:47;6.60;;;5.15;;
19036;SDS011;9651;49.138;8.900;2023-02-22T10:24:58;9.57;;;5.80;;
19036;SDS011;9651;49.138;8.900;2023-02-22T10:29:05;7.25;;;5.15;;
19036;SDS011;9651;49.138;8.900;2023-02-22T10:33:17;13.25;;;6.25;;
19036;SDS011;9651;49.138;8.900;2023-02-22T10:37:23;8.85;;;5.75;;
19036;SDS011;9651;49.138;8.900;2023-02-22T10:41:29;8.75;;;5.78;;
19036;SDS011;9651;49.138;8.900;2023-02-22T10:45:32;8.15;;;5.82;;
19036;SDS011;9651;49.138;8.900;2023-02-22T10:49:36;9.98;;;6.03;;
19036;SDS011;9651;49.138;8.900;2023-02-22T10:53:42;11.70;;;6.30;;
19036;SDS011;9651;49.138;8.900;2023-02-22T10:57:48;8.02;;;5.80;;
19036;SDS011;9651;49.138;8.900;2023-02-22T11:01:51;10.10;;;5.90;;
19036;SDS011;9651;49.138;8.900;2023-02-22T11:05:53;10.50;;;6.55;;
19036;SDS011;9651;49.138;8.900;2023-02-22T11:09:56;11.82;;;5.90;;
19036;SDS011;9651;49.138;8.900;2023-02-22T11:14:00;11.02;;;6.93;;
19036;SDS011;9651;49.138;8.900;2023-02-22T11:18:14;11.68;;;6.40;;
19036;SDS011;9651;49.138;8.900;2023-02-22T11:22:24;8.80;;;6.22;;
19036;SDS011;9651;49.138;8.900;2023-02-22T11:26:28;9.77;;;6.75;;
19036;SDS011;9651;49.138;8.900;2023-02-22T11:30:41;8.82;;;6.65;;
19036;SDS011;9651;49.138;8.900;2023-02-22T11:34:47;8.82;;;5.95;;
19036;SDS011;9651;49.138;8.900;2023-02-22T11:38:52;10.10;;;6.35;;
19036;SDS011;9651;49.138;8.900;2023-02-22T11:43:05;11.30;;;7.70;;
19036;SDS011;9651;49.138;8.900;2023-02-22T11:47:12;12.75;;;8.43;;
19036;SDS011;9651;49.138;8.900;2023-02-22T11:51:20;14.55;;;8.63;;
19036;SDS011;9651;49.138;8.900;2023-02-22T11:55:46;11.75;;;8.57;;
19036;SDS011;9651;49.138;8.900;2023-02-22T12:00:01;13.90;;;8.30;;
19036;SDS011;9651;49.138;8.900;2023-02-22T12:04:25;10.82;;;7.93;;
19036;SDS011;9651;49.138;8.900;2023-02-22T12:08:50;12.88;;;8.55;;
19036;SDS011;9651;49.138;8.900;2023-02-22T12:13:03;13.43;;;8.52;;
19036;SDS011;9651;49.138;8.900;2023-02-22T12:17:17;13.48;;;8.88;;
19036;SDS011;9651;49.138;8.900;2023-02-22T12:21:31;10.07;;;7.97;;
19036;SDS011;9651;49.138;8.900;2023-02-22T12:25:37;14.38;;;9.40;;
19036;SDS011;9651;49.138;8.900;2023-02-22T12:29:42;13.98;;;10.00;;
19036;SDS011;9651;49.138;8.900;2023-02-22T12:33:50;13.30;;;9.00;;
19036;SDS011;9651;49.138;8.900;2023-02-22T12:38:02;21.50;;;8.85;;
19036;SDS011;9651;49.138;8.900;2023-02-22T12:42:11;13.18;;;9.40;;
19036;SDS011;9651;49.138;8.900;2023-02-22T12:46:17;16.77;;;10.93;;
19036;SDS011;9651;49.138;8.900;2023-02-22T12:50:24;11.90;;;8.75;;
19036;SDS011;9651;49.138;8.900;2023-02-22T12:54:39;14.85;;;9.93;;
19036;SDS011;9651;49.138;8.900;2023-02-22T12:58:48;16.10;;;10.32;;
19036;SDS011;9651;49.138;8.900;2023-02-22T13:02:57;9.93;;;7.80;;
19036;SDS011;9651;49.138;8.900;2023-02-22T13:07:04;13.73;;;9.18;;
19036;SDS011;9651;49.138;8.900;2023-02-22T13:11:15;12.43;;;8.30;;
19036;SDS011;9651;49.138;8.900;2023-02-22T13:15:22;19.42;;;9.20;;
19036;SDS011;9651;49.138;8.900;2023-02-22T13:19:33;13.35;;;8.75;;
19036;SDS011;9651;49.138;8.900;2023-02-22T13:23:42;11.75;;;8.32;;
19036;SDS011;9651;49.138;8.900;2023-02-22T13:27:53;15.07;;;9.23;;
19036;SDS011;9651;49.138;8.900;2023-02-22T13:36:28;11.60;;;8.35;;
19036;SDS011;9651;49.138;8.900;2023-02-22T13:40:51;12.10;;;7.45;;
19036;SDS011;9651;49.138;8.900;2023-02-22T13:45:15;16.15;;;8.18;;
19036;SDS011;9651;49.138;8.900;2023-02-22T13:49:35;14.88;;;8.65;;
19036;SDS011;9651;49.138;8.900;2023-02-22T13:53:49;13.60;;;8.82;;
19036;SDS011;9651;49.138;8.900;2023-02-22T13:57:58;14.82;;;8.68;;
19036;SDS011;9651;49.138;8.900;2023-02-22T14:02:03;12.90;;;7.78;;
19036;SDS011;9651;49.138;8.900;2023-02-22T14:06:07;12.70;;;7.32;;
19036;SDS011;9651;49.138;8.900;2023-02-22T14:14:39;12.75;;;8.02;;
19036;SDS011;9651;49.138;8.900;2023-02-22T14:19:15;15.18;;;8.13;;
19036;SDS011;9651;49.138;8.900;2023-02-22T14:23:26;13.00;;;7.78;;
19036;SDS011;9651;49.138;8.900;2023-02-22T14:27:40;13.32;;;8.07;;
19036;SDS011;9651;49.138;8.900;2023-02-22T14:36:08;12.73;;;7.82;;
19036;SDS011;9651;49.138;8.900;2023-02-22T14:40:15;11.23;;;8.20;;
19036;SDS011;9651;49.138;8.900;2023-02-22T14:44:23;14.25;;;7.38;;
19036;SDS011;9651;49.138;8.900;2023-02-22T14:48:29;11.48;;;7.13;;
19036;SDS011;9651;49.138;8.900;2023-02-22T14:52:39;13.38;;;7.60;;
19036;SDS011;9651;49.138;8.900;2023-02-22T14:56:45;12.93;;;7.90;;
19036;SDS011;9651;49.138;8.900;2023-02-22T15:00:55;13.85;;;8.23;;
19036;SDS011;9651;49.138;8.900;2023-02-22T15:04:57;14.48;;;7.90;;
19036;SDS011;9651;49.138;8.900;2023-02-22T15:09:05;13.40;;;7.55;;
19036;SDS011;9651;49.138;8.900;2023-02-22T15:13:16;13.13;;;7.28;;
19036;SDS011;9651;49.138;8.900;2023-02-22T15:17:20;17.73;;;8.70;;
19036;SDS011;9651;49.138;8.900;2023-02-22T15:21:25;16.58;;;8.68;;
19036;SDS011;9651;49.138;8.900;2023-02-22T15:25:30;17.20;;;8.55;;
19036;SDS011;9651;49.138;8.900;2023-02-22T15:29:34;20.23;;;8.93;;
19036;SDS011;9651;49.138;8.900;2023-02-22T15:33:38;19.92;;;9.57;;
19036;SDS011;9651;49.138;8.900;2023-02-22T15:37:40;14.88;;;9.25;;
19036;SDS011;9651;49.138;8.900;2023-02-22T15:41:45;13.87;;;9.20;;
19036;SDS011;9651;49.138;8.900;2023-02-22T15:45:46;17.53;;;9.50;;
19036;SDS011;9651;49.138;8.900;2023-02-22T15:54:17;16.35;;;8.93;;
19036;SDS011;9651;49.138;8.900;2023-02-22T15:58:22;13.55;;;8.20;;
19036;SDS011;9651;49.138;8.900;2023-02-22T16:02:29;15.15;;;9.43;;
19036;SDS011;9651;49.138;8.900;2023-02-22T16:06:34;13.80;;;9.47;;
19036;SDS011;9651;49.138;8.900;2023-02-22T16:10:39;16.20;;;9.80;;
19036;SDS011;9651;49.138;8.900;2023-02-22T16:14:50;13.87;;;9.13;;
19036;SDS011;9651;49.138;8.900;2023-02-22T16:18:53;14.80;;;9.30;;
19036;SDS011;9651;49.138;8.900;2023-02-22T16:23:30;15.07;;;8.87;;
19036;SDS011;9651;49.138;8.900;2023-02-22T16:27:39;17.37;;;10.13;;
19036;SDS011;9651;49.138;8.900;2023-02-22T16:31:47;12.10;;;7.77;;
19036;SDS011;9651;49.138;8.900;2023-02-22T16:35:49;13.03;;;8.47;;
19036;SDS011;9651;49.138;8.900;2023-02-22T16:39:51;12.40;;;8.03;;
19036;SDS011;9651;49.138;8.900;2023-02-22T16:43:54;14.87;;;9.17;;
19036;SDS011;9651;49.138;8.900;2023-02-22T16:47:58;16.07;;;9.50;;
19036;SDS011;9651;49.138;8.900;2023-02-22T16:52:05;14.20;;;9.57;;
19036;SDS011;9651;49.138;8.900;2023-02-22T16:56:07;16.83;;;10.00;;
19036;SDS011;9651;49.138;8.900;2023-02-22T17:00:12;17.23;;;9.43;;
19036;SDS011;9651;49.138;8.900;2023-02-22T17:04:20;16.27;;;9.97;;
19036;SDS011;9651;49.138;8.900;2023-02-22T17:08:23;21.90;;;10.97;;
19036;SDS011;9651;49.138;8.900;2023-02-22T17:12:25;18.20;;;9.37;;
19036;SDS011;9651;49.138;8.900;2023-02-22T17:16:28;20.40;;;11.30;;
19036;SDS011;9651;49.138;8.900;2023-02-22T17:20:31;15.00;;;9.33;;
19036;SDS011;9651;49.138;8.900;2023-02-22T17:24:34;17.17;;;10.23;;
19036;SDS011;9651;49.138;8.900;2023-02-22T17:28:38;18.87;;;10.23;;
19036;SDS011;9651;49.138;8.900;2023-02-22T17:32:42;17.73;;;10.20;;
19036;SDS011;9651;49.138;8.900;2023-02-22T17:36:46;17.60;;;9.43;;
19036;SDS011;9651;49.138;8.900;2023-02-22T17:40:48;19.17;;;10.50;;
19036;SDS011;9651;49.138;8.900;2023-02-22T17:44:51;16.17;;;9.30;;
19036;SDS011;9651;49.138;8.900;2023-02-22T17:48:53;16.77;;;10.33;;
19036;SDS011;9651;49.138;8.900;2023-02-22T17:52:56;20.43;;;11.10;;
19036;SDS011;9651;49.138;8.900;2023-02-22T17:56:59;23.43;;;12.03;;
19036;SDS011;9651;49.138;8.900;2023-02-22T18:01:02;18.97;;;10.67;;
19036;SDS011;9651;49.138;8.900;2023-02-22T18:05:05;24.30;;;12.17;;
19036;SDS011;9651;49.138;8.900;2023-02-22T18:09:09;17.93;;;10.70;;
19036;SDS011;9651;49.138;8.900;2023-02-22T18:13:11;22.43;;;11.17;;
19036;SDS011;9651;49.138;8.900;2023-02-22T18:17:15;20.50;;;11.30;;
19036;SDS011;9651;49.138;8.900;2023-02-22T18:21:17;19.40;;;11.40;;
19036;SDS011;9651;49.138;8.900;2023-02-22T18:25:20;20.60;;;11.60;;
19036;SDS011;9651;49.138;8.900;2023-02-22T18:29:22;18.93;;;11.33;;
19036;SDS011;9651;49.138;8.900;2023-02-22T18:33:24;20.87;;;12.30;;
19036;SDS011;9651;49.138;8.900;2023-02-22T18:37:27;21.20;;;11.93;;
19036;SDS011;9651;49.138;8.900;2023-02-22T18:41:30;22.30;;;14.33;;
19036;SDS011;9651;49.138;8.900;2023-02-22T18:45:32;25.13;;;14.90;;
19036;SDS011;9651;49.138;8.900;2023-02-22T18:49:35;24.23;;;14.67;;
19036;SDS011;9651;49.138;8.900;2023-02-22T18:53:37;22.63;;;13.20;;
19036;SDS011;9651;49.138;8.900;2023-02-22T18:57:41;21.47;;;13.67;;
19036;SDS011;9651;49.138;8.900;2023-02-22T19:01:43;21.77;;;13.57;;
19036;SDS011;9651;49.138;8.900;2023-02-22T19:05:48;25.20;;;14.33;;
19036;SDS011;9651;49.138;8.900;2023-02-22T19:09:50;21.97;;;14.00;;
19036;SDS011;9651;49.138;8.900;2023-02-22T19:13:55;21.50;;;12.83;;
19036;SDS011;9651;49.138;8.900;2023-02-22T19:17:57;27.23;;;13.80;;
19036;SDS011;9651;49.138;8.900;2023-02-22T19:21:59;22.73;;;13.17;;
19036;SDS011;9651;49.138;8.900;2023-02-22T19:26:01;21.83;;;13.13;;
19036;SDS011;9651;49.138;8.900;2023-02-22T19:30:05;21.93;;;13.97;;
19036;SDS011;9651;49.138;8.900;2023-02-22T19:34:09;29.13;;;15.47;;
19036;SDS011;9651;49.138;8.900;2023-02-22T19:38:11;22.73;;;13.70;;
19036;SDS011;9651;49.138;8.900;2023-02-22T19:42:13;25.87;;;14.43;;
19036;SDS011;9651;49.138;8.900;2023-02-22T19:46:17;25.33;;;15.50;;
19036;SDS011;9651;49.138;8.900;2023-02-22T19:50:20;25.10;;;14.50;;
19036;SDS011;9651;49.138;8.900;2023-02-22T19:54:22;29.20;;;16.03;;
19036;SDS011;9651;49.138;8.900;2023-02-22T19:58:24;27.30;;;16.90;;
19036;SDS011;9651;49.138;8.900;2023-02-22T20:02:27;26.33;;;16.63;;
19036;SDS011;9651;49.138;8.900;2023-02-22T20:06:30;30.07;;;16.00;;
19036;SDS011;9651;49.138;8.900;2023-02-22T20:10:33;26.23;;;15.33;;
19036;SDS011;9651;49.138;8.900;2023-02-22T20:14:36;32.17;;;16.90;;
19036;SDS011;9651;49.138;8.900;2023-02-22T20:18:39;28.47;;;17.23;;
19036;SDS011;9651;49.138;8.900;2023-02-22T20:22:42;26.97;;;16.07;;
19036;SDS011;9651;49.138;8.900;2023-02-22T20:26:44;28.30;;;15.87;;
19036;SDS011;9651;49.138;8.900;2023-02-22T20:30:47;29.03;;;16.20;;
19036;SDS011;9651;49.138;8.900;2023-02-22T20:34:52;28.40;;;16.50;;
19036;SDS011;9651;49.138;8.900;2023-02-22T20:38:54;29.93;;;17.30;;
19036;SDS011;9651;49.138;8.900;2023-02-22T20:42:57;28.00;;;16.00;;
19036;SDS011;9651;49.138;8.900;2023-02-22T20:46:59;27.07;;;16.13;;
19036;SDS011;9651;49.138;8.900;2023-02-22T20:51:07;30.80;;;16.83;;
19036;SDS011;9651;49.138;8.900;2023-02-22T20:55:10;29.87;;;16.13;;
19036;SDS011;9651;49.138;8.900;2023-02-22T20:59:14;30.17;;;17.00;;
19036;SDS011;9651;49.138;8.900;2023-02-22T21:03:17;27.47;;;16.47;;
19036;SDS011;9651;49.138;8.900;2023-02-22T21:07:21;30.70;;;17.47;;
19036;SDS011;9651;49.138;8.900;2023-02-22T21:11:24;29.57;;;17.07;;
19036;SDS011;9651;49.138;8.900;2023-02-22T21:15:27;26.93;;;17.00;;
19036;SDS011;9651;49.138;8.900;2023-02-22T21:19:29;31.57;;;17.80;;
19036;SDS011;9651;49.138;8.900;2023-02-22T21:23:33;34.03;;;18.30;;
19036;SDS011;9651;49.138;8.900;2023-02-22T21:27:35;32.57;;;18.43;;
19036;SDS011;9651;49.138;8.900;2023-02-22T21:31:37;28.53;;;17.67;;
19036;SDS011;9651;49.138;8.900;2023-02-22T21:35:39;27.60;;;16.90;;
19036;SDS011;9651;49.138;8.900;2023-02-22T21:39:43;27.57;;;15.90;;
19036;SDS011;9651;49.138;8.900;2023-02-22T21:43:47;27.80;;;17.07;;
19036;SDS011;9651;49.138;8.900;2023-02-22T21:47:50;31.40;;;17.83;;
19036;SDS011;9651;49.138;8.900;2023-02-22T21:51:53;29.37;;;17.07;;
19036;SDS011;9651;49.138;8.900;2023-02-22T21:56:01;30.53;;;16.93;;
19036;SDS011;9651;49.138;8.900;2023-02-22T22:00:04;31.20;;;17.70;;
19036;SDS011;9651;49.138;8.900;2023-02-22T22:04:17;25.63;;;15.77;;
19036;SDS011;9651;49.138;8.900;2023-02-22T22:08:20;31.93;;;19.37;;
19036;SDS011;9651;49.138;8.900;2023-02-22T22:12:25;31.63;;;17.67;;
19036;SDS011;9651;49.138;8.900;2023-02-22T22:16:27;27.90;;;17.00;;
19036;SDS011;9651;49.138;8.900;2023-02-22T22:20:29;30.50;;;17.13;;
19036;SDS011;9651;49.138;8.900;2023-02-22T22:24:31;28.53;;;16.60;;
19036;SDS011;9651;49.138;8.900;2023-02-22T22:28:35;30.90;;;18.00;;
19036;SDS011;9651;49.138;8.900;2023-02-22T22:32:38;26.57;;;16.20;;
19036;SDS011;9651;49.138;8.900;2023-02-22T22:36:40;28.23;;;17.97;;
19036;SDS011;9651;49.138;8.900;2023-02-22T22:40:42;29.73;;;17.50;;
19036;SDS011;9651;49.138;8.900;2023-02-22T22:44:51;32.93;;;18.00;;
19036;SDS011;9651;49.138;8.900;2023-02-22T22:48:53;32.10;;;17.73;;
19036;SDS011;9651;49.138;8.900;2023-02-22T22:52:55;31.33;;;18.63;;
19036;SDS011;9651;49.138;8.900;2023-02-22T22:56:57;32.77;;;20.23;;
19036;SDS011;9651;49.138;8.900;2023-02-22T23:01:00;31.33;;;17.93;;
19036;SDS011;9651;49.138;8.900;2023-02-22T23:05:05;30.57;;;19.00;;
19036;SDS011;9651;49.138;8.900;2023-02-22T23:09:10;30.23;;;19.13;;
19036;SDS011;9651;49.138;8.900;2023-02-22T23:13:17;31.00;;;17.53;;
19036;SDS011;9651;49.138;8.900;2023-02-22T23:17:21;33.80;;;19.60;;
19036;SDS011;9651;49.138;8.900;2023-02-22T23:21:30;33.03;;;18.10;;
19036;SDS011;9651;49.138;8.900;2023-02-22T23:25:31;33.83;;;19.77;;
19036;SDS011;9651;49.138;8.900;2023-02-22T23:29:34;33.47;;;18.97;;
19036;SDS011;9651;49.138;8.900;2023-02-22T23:33:39;32.40;;;18.63;;
19036;SDS011;9651;49.138;8.900;2023-02-22T23:37:41;33.70;;;19.13;;
19036;SDS011;9651;49.138;8.900;2023-02-22T23:41:45;33.63;;;19.30;;
19036;SDS011;9651;49.138;8.900;2023-02-22T23:45:49;37.17;;;20.07;;
19036;SDS011;9651;49.138;8.900;2023-02-22T23:49:57;32.90;;;19.87;;
19036;SDS011;9651;49.138;8.900;2023-02-22T23:53:58;32.63;;;19.30;;
19036;SDS011;9651;49.138;8.900;2023-02-22T23:58:01;32.07;;;18.60;;
